Time;durP1;ratioP1;P1;durP2;ratioP2;P2;SDS_P1;SDS_P2;PMS_P1;PMS_P2;Temp;Humidity;BMP_temperature;BMP_pressure;BME280_temperature;BME280_humidity;BME280_pressure;Samples;Min_cycle;Max_cycle;Signal;HPM_P1;HPM_P2
2022/02/13 00:00:59;;;;;;;;;40.75;34.75;;;;;13.19;43.24;99670.72;4991650;27;102522;-63
2022/02/13 00:03:27;;;;;;;;;44.50;31.25;;;;;13.18;43.58;99671.78;4987200;27;104084;-62
2022/02/13 00:05:54;;;;;;;;;33.00;29.00;;;;;13.17;43.52;99667.38;4981177;27;102548;-63
2022/02/13 00:08:21;;;;;;;;;34.25;30.00;;;;;13.16;44.06;99668.38;4976855;27;103960;-62
2022/02/13 00:11:08;;;;;;;;;39.75;30.75;;;;;13.15;43.22;99663.97;4991440;27;102650;-62
2022/02/13 00:13:35;;;;;;;;;42.75;34.50;;;;;13.14;43.09;99640.59;4992303;27;104065;-63
2022/02/13 00:16:02;;;;;;;;;38.00;29.00;;;;;13.14;42.91;99656.91;4987556;27;102117;-62
2022/02/13 00:18:29;;;;;;;;;42.00;34.75;;;;;13.12;43.38;99649.97;4991516;27;105286;-62
2022/02/13 00:20:57;;;;;;;;;35.75;29.00;;;;;13.10;42.91;99650.13;4997226;27;102612;-62
2022/02/13 00:23:24;;;;;;;;;34.25;29.75;;;;;13.11;43.39;99640.13;4984509;27;104532;-62
2022/02/13 00:25:51;;;;;;;;;34.00;25.25;;;;;13.10;43.26;99642.00;5003825;27;104174;-62
2022/02/13 00:28:18;;;;;;;;;32.75;26.75;;;;;13.12;42.85;99637.22;4998684;27;102623;-63
2022/02/13 00:30:46;;;;;;;;;34.00;29.00;;;;;13.11;43.46;99637.41;4990688;27;102539;-62
2022/02/13 00:33:15;;;;;;;;;44.00;34.50;;;;;13.10;43.58;99633.84;4969987;27;104183;-62
2022/02/13 00:35:42;;;;;;;;;22.25;18.75;;;;;13.10;43.17;99631.13;4969618;27;103237;-63
2022/02/13 00:38:10;;;;;;;;;39.00;29.00;;;;;13.09;43.82;99626.72;4996311;27;102519;-62
2022/02/13 00:40:38;;;;;;;;;35.50;27.75;;;;;13.08;43.28;99622.31;4988504;27;103812;-61
2022/02/13 00:43:07;;;;;;;;;34.25;27.50;;;;;13.08;42.68;99630.47;5001548;27;103133;-61
2022/02/13 00:45:35;;;;;;;;;34.00;26.75;;;;;13.08;43.56;99625.03;4990945;27;102455;-62
2022/02/13 00:48:02;;;;;;;;;28.75;24.50;;;;;13.08;43.74;99625.03;4986681;27;102516;-62
2022/02/13 00:50:29;;;;;;;;;28.00;24.25;;;;;13.07;43.73;99626.06;5006027;27;103749;-61
2022/02/13 00:52:56;;;;;;;;;31.75;27.50;;;;;13.06;43.36;99632.53;4981753;27;103587;-62
2022/02/13 00:55:25;;;;;;;;;35.75;28.50;;;;;13.05;43.49;99625.44;4989074;27;102442;-62
2022/02/13 00:57:53;;;;;;;;;31.50;23.75;;;;;13.04;42.91;99623.75;4983759;27;102818;-62
2022/02/13 01:00:22;;;;;;;;;33.00;21.00;;;;;13.06;42.64;99621.66;4988194;27;104025;-62
2022/02/13 01:02:50;;;;;;;;;30.00;25.00;;;;;13.05;42.78;99621.88;4989440;27;103087;-62
2022/02/13 01:05:19;;;;;;;;;30.00;25.25;;;;;13.02;43.56;99619.50;4982544;27;102846;-61
2022/02/13 01:07:49;;;;;;;;;34.50;24.75;;;;;13.01;42.72;99616.00;4985625;27;102439;-61
2022/02/13 01:10:16;;;;;;;;;35.75;26.25;;;;;13.02;42.78;99614.94;4985770;27;105063;-62
2022/02/13 01:12:44;;;;;;;;;22.00;18.00;;;;;13.02;43.32;99609.50;4992431;27;103594;-62
2022/02/13 01:15:11;;;;;;;;;36.25;25.50;;;;;13.03;43.07;99603.03;4992376;27;106318;-62
2022/02/13 01:17:39;;;;;;;;;30.75;24.00;;;;;13.02;42.61;99614.09;4984977;27;102679;-63
2022/02/13 01:20:07;;;;;;;;;33.25;25.50;;;;;13.01;43.37;99599.69;4983142;27;105904;-62
2022/02/13 01:22:35;;;;;;;;;29.75;24.00;;;;;13.00;43.61;99597.16;4974227;27;104060;-62
2022/02/13 01:25:05;;;;;;;;;28.50;23.25;;;;;12.99;43.50;99588.19;4971844;27;103207;-61
2022/02/13 01:27:32;;;;;;;;;24.00;22.50;;;;;12.98;43.45;99587.34;4995386;27;102996;-61
2022/02/13 01:30:00;;;;;;;;;23.00;20.75;;;;;12.96;42.78;99583.16;4988355;27;102873;-61
2022/02/13 01:32:27;;;;;;;;;27.75;23.50;;;;;12.98;43.07;99586.50;4975975;27;104539;-61
2022/02/13 01:34:54;;;;;;;;;26.25;21.50;;;;;12.97;42.85;99580.22;4977117;27;102352;-64
2022/02/13 01:37:22;;;;;;;;;24.25;21.00;;;;;13.00;42.36;99583.59;4982345;27;102892;-64
2022/02/13 01:39:49;;;;;;;;;24.75;21.75;;;;;12.97;42.64;99580.22;4987419;27;102276;-64
2022/02/13 01:42:17;;;;;;;;;28.25;23.00;;;;;12.95;42.36;99574.16;4985012;27;103770;-64
2022/02/13 01:44:44;;;;;;;;;29.00;21.50;;;;;12.96;42.35;99566.84;4968357;27;102476;-64
2022/02/13 01:47:11;;;;;;;;;23.00;18.50;;;;;12.94;42.83;99558.03;4969289;27;102230;-65
2022/02/13 01:49:38;;;;;;;;;21.25;20.00;;;;;12.94;42.28;99560.75;4989051;27;104343;-65
2022/02/13 01:52:05;;;;;;;;;25.75;22.00;;;;;12.94;42.33;99555.34;4982268;27;103987;-64
2022/02/13 01:54:32;;;;;;;;;24.00;21.00;;;;;12.94;43.04;99555.34;4978771;27;102700;-64
2022/02/13 01:56:59;;;;;;;;;23.25;22.00;;;;;12.94;42.99;99558.03;5003077;27;102604;-64
2022/02/13 01:59:26;;;;;;;;;26.50;20.75;;;;;12.93;42.31;99550.94;4987547;27;104008;-64
2022/02/13 02:01:56;;;;;;;;;24.75;18.50;;;;;12.93;42.37;99540.06;4980637;27;108812;-64
2022/02/13 02:04:23;;;;;;;;;28.50;20.75;;;;;12.93;43.28;99530.06;4942222;27;102559;-64
2022/02/13 02:06:50;;;;;;;;;24.00;22.50;;;;;12.93;43.08;99538.19;4946136;27;106343;-64
2022/02/13 02:09:17;;;;;;;;;24.00;18.00;;;;;12.92;42.83;99538.41;4965634;27;104450;-64
2022/02/13 02:11:44;;;;;;;;;27.00;19.00;;;;;12.93;42.23;99534.63;4964737;27;104036;-64
2022/02/13 02:14:12;;;;;;;;;26.50;23.25;;;;;12.92;43.24;99531.09;4961450;27;104933;-64
2022/02/13 02:16:40;;;;;;;;;27.75;21.00;;;;;12.92;42.40;99533.00;4993714;27;102425;-64
2022/02/13 02:19:08;;;;;;;;;24.25;22.50;;;;;12.91;43.24;99531.28;4984981;27;102747;-65
2022/02/13 02:21:36;;;;;;;;;23.50;18.50;;;;;12.90;42.45;99527.75;4977364;27;104073;-64
2022/02/13 02:24:04;;;;;;;;;24.75;19.00;;;;;12.89;43.10;99526.06;4986932;27;103724;-63
2022/02/13 02:26:31;;;;;;;;;23.50;19.25;;;;;12.89;42.25;99517.06;4969696;27;102915;-65
2022/02/13 02:28:58;;;;;;;;;21.00;17.75;;;;;12.88;42.31;99515.38;4992325;27;102826;-65
2022/02/13 02:31:25;;;;;;;;;21.50;20.75;;;;;12.86;43.08;99520.19;4995476;27;109087;-64
2022/02/13 02:33:52;;;;;;;;;21.75;16.00;;;;;12.87;43.10;99508.28;4984553;27;102953;-65
2022/02/13 02:36:20;;;;;;;;;21.75;18.00;;;;;12.86;41.93;99502.03;4985876;27;104170;-64
2022/02/13 02:38:48;;;;;;;;;17.50;17.00;;;;;12.85;42.06;99499.50;4986959;27;103210;-64
2022/02/13 02:41:15;;;;;;;;;19.75;16.50;;;;;12.84;42.13;99498.66;4991078;27;104207;-65
2022/02/13 02:43:45;;;;;;;;;17.50;15.25;;;;;12.84;43.12;99497.81;4980267;27;103495;-64
2022/02/13 02:46:12;;;;;;;;;26.00;20.50;;;;;12.86;42.44;99501.19;4991006;27;102591;-64
2022/02/13 02:48:40;;;;;;;;;23.25;17.25;;;;;12.83;42.70;99490.72;4981479;27;108816;-64
2022/02/13 02:51:07;;;;;;;;;23.25;16.25;;;;;12.84;42.93;99492.38;4983070;27;104123;-64
2022/02/13 02:53:34;;;;;;;;;17.00;15.00;;;;;12.84;43.22;99481.50;4970104;27;102425;-64
2022/02/13 02:56:01;;;;;;;;;19.50;16.75;;;;;12.83;42.56;99490.72;4987793;27;106372;-64
2022/02/13 02:58:28;;;;;;;;;22.25;16.50;;;;;12.82;43.09;99483.59;4993869;27;103980;-65
2022/02/13 03:00:56;;;;;;;;;22.25;15.25;;;;;12.81;42.55;99484.63;4983243;27;108835;-64
2022/02/13 03:03:23;;;;;;;;;22.50;15.00;;;;;12.81;42.25;99484.63;4985591;27;103534;-65
2022/02/13 03:05:50;;;;;;;;;18.00;17.50;;;;;12.80;42.47;99475.63;4973039;27;102415;-64
2022/02/13 03:08:17;;;;;;;;;21.00;16.25;;;;;12.83;42.68;99485.28;4999656;27;102757;-64
2022/02/13 03:10:45;;;;;;;;;20.50;14.75;;;;;12.92;42.66;99482.22;4982941;27;104100;-64
2022/02/13 03:13:14;;;;;;;;;22.75;17.50;;;;;12.92;41.79;99478.69;4990737;27;104311;-64
2022/02/13 03:15:41;;;;;;;;;20.50;17.00;;;;;12.96;41.79;99479.97;4991239;27;103458;-64
2022/02/13 03:18:09;;;;;;;;;16.25;14.75;;;;;13.00;42.64;99472.28;4975039;27;103288;-65
2022/02/13 03:20:36;;;;;;;;;17.00;15.00;;;;;13.06;41.53;99476.94;4990989;27;104098;-64
2022/02/13 03:23:03;;;;;;;;;16.25;14.00;;;;;13.11;41.64;99475.31;4985566;27;102752;-64
2022/02/13 03:25:30;;;;;;;;;15.25;14.25;;;;;13.13;42.00;99467.00;4995402;27;103512;-64
2022/02/13 03:27:57;;;;;;;;;15.50;12.50;;;;;13.15;41.78;99473.09;4994736;27;102290;-64
2022/02/13 03:30:24;;;;;;;;;16.25;14.00;;;;;13.18;41.27;99472.69;4990483;27;104144;-64
2022/02/13 03:32:51;;;;;;;;;22.75;15.25;;;;;13.20;41.97;99466.00;4971580;27;104329;-64
2022/02/13 03:35:18;;;;;;;;;14.00;13.75;;;;;13.23;41.76;99465.63;4981469;27;102790;-64
2022/02/13 03:37:45;;;;;;;;;19.50;14.25;;;;;13.25;41.57;99462.69;4984292;27;102683;-65
2022/02/13 03:40:13;;;;;;;;;17.00;16.25;;;;;13.27;41.38;99458.75;4986942;27;104085;-64
2022/02/13 03:42:40;;;;;;;;;16.00;15.50;;;;;13.30;42.05;99466.50;4976680;27;102688;-64
2022/02/13 03:45:07;;;;;;;;;19.00;16.50;;;;;13.31;42.07;99465.47;4974905;27;103040;-64
2022/02/13 03:47:34;;;;;;;;;18.00;14.00;;;;;13.32;41.93;99458.16;4999326;27;102231;-64
2022/02/13 03:50:01;;;;;;;;;16.75;14.00;;;;;13.32;41.47;99455.47;4983906;27;104042;-64
2022/02/13 03:52:28;;;;;;;;;15.25;14.75;;;;;13.31;41.51;99446.47;4991185;27;104399;-64
2022/02/13 03:54:55;;;;;;;;;17.25;15.25;;;;;13.32;42.14;99442.72;4994130;27;102579;-65
2022/02/13 03:57:22;;;;;;;;;17.00;13.50;;;;;13.35;41.08;99446.91;4991443;27;103197;-64
2022/02/13 03:59:49;;;;;;;;;16.25;11.50;;;;;13.36;41.28;99444.00;4984501;27;104023;-64
2022/02/13 04:02:16;;;;;;;;;13.00;11.25;;;;;13.36;41.69;99446.72;4987050;27;103703;-65
2022/02/13 04:04:43;;;;;;;;;16.00;14.75;;;;;13.37;41.15;99440.22;4980187;27;102387;-62
2022/02/13 04:07:11;;;;;;;;;19.75;16.50;;;;;13.36;41.90;99438.56;4990767;27;102250;-62
2022/02/13 04:09:39;;;;;;;;;17.50;12.25;;;;;13.36;41.23;99435.84;4999373;27;104368;-62
2022/02/13 04:12:06;;;;;;;;;20.50;17.50;;;;;13.37;41.25;99432.06;4992224;27;103685;-62
2022/02/13 04:14:33;;;;;;;;;12.25;12.25;;;;;13.38;41.22;99430.19;4978036;27;105012;-61
2022/02/13 04:17:00;;;;;;;;;15.25;14.50;;;;;13.38;41.60;99425.59;5000471;27;104049;-62
2022/02/13 04:19:27;;;;;;;;;14.00;11.75;;;;;13.40;41.23;99428.97;4986637;27;105258;-62
2022/02/13 04:21:54;;;;;;;;;19.75;15.25;;;;;13.39;41.03;99419.16;4968345;27;102687;-62
2022/02/13 04:24:21;;;;;;;;;14.00;11.00;;;;;13.39;40.77;99421.84;4981833;27;103142;-62
2022/02/13 04:26:48;;;;;;;;;19.00;16.50;;;;;13.38;40.81;99414.75;4986432;27;102517;-62
2022/02/13 04:29:15;;;;;;;;;15.50;12.50;;;;;13.39;41.73;99418.31;4971088;27;104012;-62
2022/02/13 04:31:42;;;;;;;;;17.50;15.50;;;;;13.36;41.23;99408.69;4973021;27;104190;-62
2022/02/13 04:34:09;;;;;;;;;16.75;15.00;;;;;13.36;41.25;99407.84;4971319;27;102810;-62
2022/02/13 04:36:37;;;;;;;;;14.50;12.50;;;;;13.36;41.93;99407.84;4974852;27;102643;-62
2022/02/13 04:39:04;;;;;;;;;16.50;14.00;;;;;13.31;41.54;99408.44;4973858;27;104073;-62
2022/02/13 04:41:31;;;;;;;;;17.50;14.25;;;;;13.32;40.93;99403.84;4976888;27;103934;-62
2022/02/13 04:43:58;;;;;;;;;22.50;15.25;;;;;13.30;41.04;99392.34;4982400;27;104133;-62
2022/02/13 04:46:25;;;;;;;;;17.75;12.25;;;;;13.21;41.40;99397.09;4983187;27;102710;-62
2022/02/13 04:48:52;;;;;;;;;13.25;12.00;;;;;13.20;41.51;99383.69;4984774;27;104094;-61
2022/02/13 04:51:19;;;;;;;;;19.00;16.25;;;;;13.20;41.03;99394.56;4983399;27;103039;-62
2022/02/13 04:53:46;;;;;;;;;15.00;13.00;;;;;13.22;41.48;99384.34;4983759;27;102732;-62
2022/02/13 04:56:14;;;;;;;;;14.00;12.25;;;;;13.20;41.38;99389.13;4985682;27;105706;-62
2022/02/13 04:58:41;;;;;;;;;22.25;16.50;;;;;13.19;41.56;99384.75;4992195;27;104524;-62
2022/02/13 05:01:09;;;;;;;;;15.75;14.25;;;;;13.18;41.81;99378.47;4984854;27;102174;-62
2022/02/13 05:03:36;;;;;;;;;21.00;12.00;;;;;13.20;41.26;99384.53;4994009;27;104164;-62
2022/02/13 05:06:03;;;;;;;;;14.75;12.00;;;;;13.18;42.14;99381.19;4974212;27;106035;-61
2022/02/13 05:08:30;;;;;;;;;17.25;15.00;;;;;13.16;42.10;99383.25;4989204;27;108958;-62
2022/02/13 05:10:57;;;;;;;;;15.75;13.50;;;;;13.11;41.68;99369.44;4964858;27;102220;-62
2022/02/13 05:13:24;;;;;;;;;16.75;12.25;;;;;13.10;41.92;99373.19;4986423;27;102685;-62
2022/02/13 05:15:51;;;;;;;;;16.25;13.75;;;;;13.09;41.21;99365.22;4998031;27;102575;-62
2022/02/13 05:18:18;;;;;;;;;15.50;13.75;;;;;13.06;42.10;99352.84;4986032;27;104198;-62
2022/02/13 05:20:45;;;;;;;;;15.75;12.50;;;;;13.04;41.47;99352.25;4991019;27;103244;-62
2022/02/13 05:23:12;;;;;;;;;16.50;14.00;;;;;13.04;41.45;99356.81;4976273;27;102402;-62
2022/02/13 05:25:39;;;;;;;;;14.75;13.50;;;;;13.04;42.21;99357.66;4974329;27;102545;-62
2022/02/13 05:28:06;;;;;;;;;16.75;15.00;;;;;13.04;42.31;99359.53;4986889;27;104529;-62
2022/02/13 05:30:33;;;;;;;;;17.50;13.75;;;;;12.99;41.34;99360.13;4987862;27;102141;-62
2022/02/13 05:33:01;;;;;;;;;14.75;14.00;;;;;12.96;41.32;99355.09;4978069;27;103488;-62
2022/02/13 05:35:28;;;;;;;;;15.50;12.75;;;;;12.97;42.25;99349.47;4983300;27;103251;-62
2022/02/13 05:37:55;;;;;;;;;15.25;13.25;;;;;12.95;41.62;99353.44;4982831;27;104226;-62
2022/02/13 05:40:22;;;;;;;;;12.50;11.75;;;;;12.93;42.25;99348.19;4970009;27;102547;-62
2022/02/13 05:42:49;;;;;;;;;16.75;15.00;;;;;12.94;41.95;99343.59;4972914;27;103168;-62
2022/02/13 05:45:16;;;;;;;;;15.00;13.75;;;;;12.94;42.18;99349.03;4988291;27;102932;-62
2022/02/13 05:47:46;;;;;;;;;17.00;14.25;;;;;12.94;42.32;99358.00;4980477;27;104084;-62
2022/02/13 05:50:18;;;;;;;;;10.25;10.25;;;;;12.95;42.01;99353.44;4972786;27;104015;-62
2022/02/13 05:52:45;;;;;;;;;13.75;11.50;;;;;12.95;41.86;99350.72;4988746;27;102651;-62
2022/02/13 05:55:12;;;;;;;;;15.25;13.50;;;;;12.95;42.13;99354.28;4985529;27;102653;-62
2022/02/13 05:57:43;;;;;;;;;11.75;10.75;;;;;12.94;41.43;99351.75;4977205;27;104290;-61
2022/02/13 06:00:11;;;;;;;;;15.25;14.25;;;;;12.92;41.33;99345.69;4979269;27;102490;-62
2022/02/13 06:02:41;;;;;;;;;13.75;11.75;;;;;12.90;42.13;99348.59;4975606;27;102916;-62
2022/02/13 06:05:09;;;;;;;;;14.50;13.50;;;;;12.90;42.33;99339.59;4983651;27;103133;-61
2022/02/13 06:07:41;;;;;;;;;13.00;11.75;;;;;12.88;42.34;99339.78;4994512;27;104092;-60
2022/02/13 06:10:10;;;;;;;;;14.00;12.25;;;;;12.88;42.17;99342.50;4984905;27;103322;-62
2022/02/13 06:12:37;;;;;;;;;14.00;11.75;;;;;12.87;42.21;99337.28;4992263;27;104085;-60
2022/02/13 06:15:05;;;;;;;;;12.00;10.75;;;;;12.88;41.57;99330.81;4988763;27;103136;-62
2022/02/13 06:17:32;;;;;;;;;17.75;13.00;;;;;12.85;42.09;99333.94;4988165;27;108409;-62
2022/02/13 06:19:59;;;;;;;;;13.50;12.50;;;;;12.84;41.20;99324.94;4970544;28;104993;-62
2022/02/13 06:22:29;;;;;;;;;11.00;9.00;;;;;12.85;41.54;99328.50;4968930;27;102627;-62
2022/02/13 06:24:56;;;;;;;;;11.75;11.00;;;;;12.83;41.83;99331.41;4982312;27;103841;-62
2022/02/13 06:27:23;;;;;;;;;11.00;10.00;;;;;12.83;42.34;99325.16;4975390;27;104262;-62
2022/02/13 06:29:50;;;;;;;;;11.75;11.00;;;;;12.82;42.07;99337.03;4977867;27;102421;-62
2022/02/13 06:32:17;;;;;;;;;12.50;10.00;;;;;12.82;41.97;99332.47;4971491;27;104225;-62
2022/02/13 06:34:44;;;;;;;;;14.00;13.00;;;;;12.83;41.23;99327.88;4984402;27;102625;-62
2022/02/13 06:37:11;;;;;;;;;15.00;11.50;;;;;12.83;41.29;99319.72;4961274;27;106090;-61
2022/02/13 06:39:38;;;;;;;;;14.75;12.75;;;;;12.82;41.50;99318.03;4969537;27;103987;-62
2022/02/13 06:42:05;;;;;;;;;12.75;12.75;;;;;12.83;41.57;99317.81;4991548;27;103764;-61
2022/02/13 06:44:32;;;;;;;;;13.25;10.50;;;;;12.82;41.34;99320.75;4994976;27;104666;-62
2022/02/13 06:46:59;;;;;;;;;15.00;11.75;;;;;12.81;41.74;99328.06;4974756;27;104256;-61
2022/02/13 06:49:26;;;;;;;;;10.50;10.25;;;;;12.80;41.30;99320.09;4992256;27;102549;-62
2022/02/13 06:51:53;;;;;;;;;16.75;14.25;;;;;12.79;41.75;99315.72;4989693;27;103482;-62
2022/02/13 06:54:20;;;;;;;;;14.25;12.75;;;;;12.77;41.42;99306.94;4994287;27;103048;-62
2022/02/13 06:56:47;;;;;;;;;17.25;14.75;;;;;12.79;41.85;99304.84;4978304;27;104337;-62
2022/02/13 06:59:14;;;;;;;;;15.25;14.25;;;;;12.78;41.27;99316.78;4983935;27;102934;-62
2022/02/13 07:01:41;;;;;;;;;17.00;13.25;;;;;12.76;41.77;99302.53;4974580;27;104020;-62
2022/02/13 07:04:08;;;;;;;;;15.50;11.00;;;;;12.74;41.60;99304.63;4986202;27;102249;-61
2022/02/13 07:06:35;;;;;;;;;15.00;12.75;;;;;12.75;41.29;99314.44;4993947;27;104391;-62
2022/02/13 07:09:04;;;;;;;;;13.50;10.25;;;;;12.76;42.12;99305.25;4980716;27;102188;-62
2022/02/13 07:11:31;;;;;;;;;10.50;8.75;;;;;12.76;41.59;99305.25;4983940;27;102939;-62
2022/02/13 07:13:58;;;;;;;;;10.75;10.00;;;;;12.77;41.73;99306.94;4987186;27;103158;-62
2022/02/13 07:16:26;;;;;;;;;9.50;8.25;;;;;12.77;42.04;99302.34;4996473;27;104426;-62
2022/02/13 07:18:52;;;;;;;;;11.00;9.25;;;;;12.77;41.57;99294.22;5000218;27;102191;-62
2022/02/13 07:21:19;;;;;;;;;15.25;10.75;;;;;12.77;41.53;99296.09;4978521;27;102455;-62
2022/02/13 07:23:47;;;;;;;;;12.50;10.75;;;;;12.78;41.53;99297.78;4993849;27;102745;-62
2022/02/13 07:26:14;;;;;;;;;12.25;10.50;;;;;12.77;41.98;99296.09;4987777;27;103383;-62
2022/02/13 07:28:59;;;;;;;;;9.75;9.50;;;;;12.77;41.56;99293.38;4974484;27;102917;-62
2022/02/13 07:31:27;;;;;;;;;12.50;10.00;;;;;12.78;42.15;99286.91;4990616;27;102356;-62
2022/02/13 07:33:55;;;;;;;;;12.50;12.50;;;;;12.77;42.13;99274.38;4987580;27;102962;-62
2022/02/13 07:36:22;;;;;;;;;13.50;11.00;;;;;12.77;41.27;99277.09;4987583;27;104167;-62
2022/02/13 07:38:49;;;;;;;;;11.50;11.50;;;;;12.77;42.00;99285.22;4994925;27;102672;-62
2022/02/13 07:41:18;;;;;;;;;13.25;10.00;;;;;12.74;42.17;99281.03;4990158;27;103117;-62
2022/02/13 07:43:45;;;;;;;;;14.00;10.00;;;;;12.74;42.03;99281.03;4985060;27;103500;-62
2022/02/13 07:46:12;;;;;;;;;5.50;4.00;;;;;12.75;41.14;99282.72;5007717;27;104660;-62
2022/02/13 07:48:39;;;;;;;;;10.75;10.25;;;;;12.77;41.37;99279.81;4980855;27;102626;-62
2022/02/13 07:51:06;;;;;;;;;13.25;10.00;;;;;12.76;42.09;99278.13;4977382;28;102617;-62
2022/02/13 07:53:33;;;;;;;;;10.00;8.75;;;;;12.78;41.34;99271.47;4976901;27;103027;-62
2022/02/13 07:56:00;;;;;;;;;10.00;9.75;;;;;12.79;41.88;99256.00;4979512;28;104102;-63
2022/02/13 07:58:32;;;;;;;;;10.50;10.25;;;;;12.80;41.54;99273.97;4980366;27;102230;-63
2022/02/13 08:01:03;;;;;;;;;12.25;11.00;;;;;12.79;41.83;99275.84;4997175;27;102569;-62
2022/02/13 08:03:30;;;;;;;;;10.00;8.50;;;;;12.81;41.29;99270.22;5001590;27;102809;-63
2022/02/13 08:05:57;;;;;;;;;10.50;10.00;;;;;12.79;41.60;99275.84;4975318;27;104391;-63
2022/02/13 08:08:24;;;;;;;;;14.75;11.50;;;;;12.80;41.88;99279.41;4991435;27;102461;-62
2022/02/13 08:10:51;;;;;;;;;14.75;9.25;;;;;12.81;40.94;99270.22;4987248;27;103362;-62
2022/02/13 08:13:18;;;;;;;;;12.00;11.00;;;;;12.81;41.78;99275.66;4988615;27;103645;-62
2022/02/13 08:15:45;;;;;;;;;11.25;9.50;;;;;12.80;40.96;99277.53;4992531;27;104103;-62
2022/02/13 08:18:14;;;;;;;;;12.75;10.50;;;;;12.81;41.19;99272.94;4993384;27;102548;-63
2022/02/13 08:20:41;;;;;;;;;11.25;8.75;;;;;12.81;41.12;99273.78;4986985;27;107093;-62
2022/02/13 08:23:09;;;;;;;;;10.75;9.50;;;;;12.82;40.75;99272.75;4983491;27;103349;-62
2022/02/13 08:25:36;;;;;;;;;10.25;9.25;;;;;12.83;41.14;99268.16;4983946;27;108955;-63
2022/02/13 08:28:04;;;;;;;;;9.00;7.75;;;;;12.85;40.80;99260.66;4984005;27;102658;-62
2022/02/13 08:30:31;;;;;;;;;15.50;10.00;;;;;12.85;40.88;99271.50;5001478;27;102571;-63
2022/02/13 08:32:58;;;;;;;;;14.50;10.00;;;;;12.84;41.67;99267.09;4986777;27;102598;-62
